createdAt,value
2019-03-06T00:00:28.735Z,1.6
2019-03-06T00:01:28.748Z,1.6
2019-03-06T00:02:28.785Z,1.7
2019-03-06T00:03:28.808Z,1.7
2019-03-06T00:04:28.839Z,1.7
2019-03-06T00:05:28.875Z,1.7
2019-03-06T00:06:28.896Z,1.6
2019-03-06T00:07:28.915Z,1.7
2019-03-06T00:08:28.910Z,1.6
2019-03-06T00:09:28.937Z,1.6
2019-03-06T00:10:28.993Z,1.6
2019-03-06T00:11:28.985Z,1.5
2019-03-06T00:12:29.016Z,1.6
2019-03-06T00:13:29.054Z,1.6
2019-03-06T00:14:29.088Z,1.7
2019-03-06T00:15:29.074Z,1.6
2019-03-06T00:16:29.101Z,1.6
2019-03-06T00:17:29.138Z,1.6
2019-03-06T00:18:29.140Z,1.6
2019-03-06T00:19:29.190Z,1.6
2019-03-06T00:20:29.186Z,1.5
2019-03-06T00:21:29.222Z,1.6
2019-03-06T00:22:29.224Z,1.5
2019-03-06T00:23:29.262Z,1.5
2019-03-06T00:24:29.280Z,1.4
2019-03-06T00:25:29.311Z,1.4
2019-03-06T00:26:29.311Z,1.4
2019-03-06T00:27:29.326Z,1.4
2019-03-06T00:28:29.313Z,1.4
2019-03-06T00:29:29.387Z,1.4
2019-03-06T00:30:29.470Z,1.4
2019-03-06T00:31:29.388Z,1.3
2019-03-06T00:32:29.416Z,1.3
2019-03-06T00:33:29.456Z,1.3
2019-03-06T00:34:29.456Z,1.3
2019-03-06T00:35:29.495Z,1.3
2019-03-06T00:36:29.471Z,1.2
2019-03-06T00:37:29.516Z,1.1
2019-03-06T00:38:29.503Z,1.1
2019-03-06T00:39:29.533Z,1
2019-03-06T00:40:29.526Z,1
2019-03-06T00:41:29.572Z,1
2019-03-06T00:42:29.532Z,0.9
2019-03-06T00:43:29.567Z,0.9
2019-03-06T00:44:29.578Z,0.9
2019-03-06T00:45:29.577Z,0.9
2019-03-06T00:46:29.616Z,0.8
2019-03-06T00:47:29.557Z,0.8
2019-03-06T00:48:29.589Z,0.8
2019-03-06T00:49:29.589Z,0.8
2019-03-06T00:50:29.612Z,0.9
2019-03-06T00:51:29.592Z,0.8
2019-03-06T00:52:29.608Z,0.7
2019-03-06T00:53:29.603Z,0.7
2019-03-06T00:54:29.626Z,0.6
2019-03-06T00:55:29.631Z,0.6
2019-03-06T00:56:29.632Z,0.6
2019-03-06T00:57:29.623Z,0.6
2019-03-06T00:58:29.632Z,0.6
2019-03-06T00:59:32.118Z,0.6
2019-03-06T01:00:29.674Z,0.7
2019-03-06T01:01:29.645Z,0.8
2019-03-06T01:02:29.763Z,0.7
2019-03-06T01:03:29.665Z,0.7
2019-03-06T01:04:29.652Z,0.7
2019-03-06T01:05:29.701Z,0.7
2019-03-06T01:06:29.688Z,0.7
2019-03-06T01:07:29.714Z,0.8
2019-03-06T01:08:29.699Z,0.8
2019-03-06T01:09:29.988Z,0.8
2019-03-06T01:10:29.738Z,0.8
2019-03-06T01:11:29.731Z,0.8
2019-03-06T01:12:29.729Z,0.8
2019-03-06T01:13:29.845Z,0.8
2019-03-06T01:14:29.752Z,0.8
2019-03-06T01:15:29.763Z,0.8
2019-03-06T01:16:29.749Z,0.6
2019-03-06T01:17:29.767Z,0.8
2019-03-06T01:18:29.771Z,0.7
2019-03-06T01:19:29.812Z,0.7
2019-03-06T01:20:29.773Z,0.7
2019-03-06T01:21:29.789Z,0.7
2019-03-06T01:22:29.797Z,0.8
2019-03-06T01:23:29.782Z,0.7
2019-03-06T01:24:29.804Z,0.7
2019-03-06T01:25:29.814Z,0.6
2019-03-06T01:26:29.775Z,0.5
2019-03-06T01:27:29.811Z,0.7
2019-03-06T01:28:29.821Z,0.7
2019-03-06T01:29:29.829Z,0.7
2019-03-06T01:30:29.830Z,0.7
2019-03-06T01:31:29.878Z,0.7
2019-03-06T01:32:29.886Z,0.6
2019-03-06T01:33:29.924Z,0.6
2019-03-06T01:34:29.928Z,0.6
2019-03-06T01:35:29.936Z,0.6
2019-03-06T01:36:29.979Z,0.6
2019-03-06T01:37:29.977Z,0.6
2019-03-06T01:38:30.021Z,0.6
2019-03-06T01:39:30.048Z,0.6
2019-03-06T01:40:30.067Z,0.6
2019-03-06T01:41:30.086Z,0.6
2019-03-06T01:42:30.653Z,0.6
2019-03-06T01:43:30.117Z,0.6
2019-03-06T01:44:30.141Z,0.5
2019-03-06T01:45:30.180Z,0.6
2019-03-06T01:46:32.395Z,0.7
2019-03-06T01:47:30.185Z,0.7
2019-03-06T01:48:30.273Z,0.7
2019-03-06T01:49:30.206Z,0.7
2019-03-06T01:50:30.219Z,0.7
2019-03-06T01:51:30.241Z,0.7
2019-03-06T01:52:30.243Z,0.7
2019-03-06T01:53:30.239Z,0.7
2019-03-06T01:54:30.249Z,0.7
2019-03-06T01:55:30.274Z,0.7
2019-03-06T01:56:30.289Z,0.7
2019-03-06T01:57:30.281Z,0.8
2019-03-06T01:58:30.324Z,0.8
2019-03-06T01:59:30.333Z,0.9
2019-03-06T02:00:30.351Z,0.9
2019-03-06T02:01:30.332Z,0.8
2019-03-06T02:02:30.345Z,0.8
2019-03-06T02:03:30.341Z,0.9
2019-03-06T02:04:30.496Z,0.9
2019-03-06T02:05:30.358Z,1
2019-03-06T02:06:30.334Z,0.9
2019-03-06T02:07:30.339Z,0.9
2019-03-06T02:08:30.402Z,1
2019-03-06T02:09:30.355Z,1
2019-03-06T02:10:30.866Z,1.2
2019-03-06T02:11:30.369Z,1.1
2019-03-06T02:12:30.417Z,1.1
2019-03-06T02:13:30.397Z,1.1
2019-03-06T02:14:30.426Z,1.1
2019-03-06T02:15:30.411Z,1.1
2019-03-06T02:16:30.475Z,1.1
2019-03-06T02:17:30.505Z,1.1
2019-03-06T02:18:30.531Z,1.1
2019-03-06T02:19:30.542Z,1.1
2019-03-06T02:20:30.615Z,1.1
2019-03-06T02:21:30.624Z,1.1
2019-03-06T02:22:30.655Z,1.1
2019-03-06T02:23:30.713Z,1.1
2019-03-06T02:24:30.758Z,1.1
2019-03-06T02:25:30.785Z,1.1
2019-03-06T02:26:30.813Z,1.1
2019-03-06T02:27:30.854Z,1.1
2019-03-06T02:28:30.905Z,1.1
2019-03-06T02:29:30.930Z,1
2019-03-06T02:30:30.959Z,1
2019-03-06T02:31:31.997Z,1
2019-03-06T02:32:31.072Z,1.1
2019-03-06T02:33:31.094Z,1.1
2019-03-06T02:34:31.128Z,1.1
2019-03-06T02:35:31.141Z,1.1
2019-03-06T02:36:31.175Z,1.1
2019-03-06T02:37:31.195Z,1.1
2019-03-06T02:38:31.194Z,1
2019-03-06T02:39:31.189Z,1
2019-03-06T02:40:31.212Z,1
2019-03-06T02:41:31.266Z,0.8
2019-03-06T02:42:31.302Z,0.9
2019-03-06T02:43:31.345Z,0.9
2019-03-06T02:44:31.378Z,0.9
2019-03-06T02:45:31.377Z,0.9
2019-03-06T02:46:31.411Z,0.9
2019-03-06T02:47:31.459Z,0.9
2019-03-06T02:48:31.486Z,0.9
2019-03-06T02:49:31.523Z,1
2019-03-06T02:50:31.507Z,1.1
2019-03-06T02:51:31.529Z,1.1
2019-03-06T02:52:31.591Z,1.1
2019-03-06T02:53:31.604Z,1
2019-03-06T02:54:31.649Z,1
2019-03-06T02:55:31.662Z,1
2019-03-06T02:56:31.657Z,1
2019-03-06T02:57:31.684Z,0.9
2019-03-06T02:58:31.735Z,1
2019-03-06T02:59:31.737Z,1
2019-03-06T03:00:31.760Z,1
2019-03-06T03:01:31.790Z,1.1
2019-03-06T03:02:31.824Z,1.2
2019-03-06T03:03:31.859Z,1.2
2019-03-06T03:04:31.875Z,1.1
2019-03-06T03:05:31.882Z,1.1
2019-03-06T03:06:31.928Z,1.1
2019-03-06T03:07:31.883Z,0.9
2019-03-06T03:08:31.900Z,1
2019-03-06T03:09:31.950Z,1
2019-03-06T03:10:31.941Z,0.9
2019-03-06T03:11:31.950Z,0.9
2019-03-06T03:12:31.973Z,0.9
2019-03-06T03:13:32.008Z,0.8
2019-03-06T03:14:32.013Z,0.8
2019-03-06T03:15:32.018Z,1
2019-03-06T03:16:32.044Z,1
2019-03-06T03:17:32.022Z,0.8
2019-03-06T03:18:32.089Z,0.8
2019-03-06T03:19:32.049Z,0.7
2019-03-06T03:20:32.068Z,0.7
2019-03-06T03:21:32.069Z,0.7
2019-03-06T03:22:32.093Z,0.6
2019-03-06T03:23:32.105Z,0.6
2019-03-06T03:24:32.075Z,0.7
2019-03-06T03:25:32.120Z,0.7
2019-03-06T03:26:32.096Z,0.7
2019-03-06T03:27:32.098Z,0.6
2019-03-06T03:28:32.117Z,0.5
2019-03-06T03:29:32.100Z,0.5
2019-03-06T03:30:32.179Z,0.6
2019-03-06T03:31:32.108Z,0.6
2019-03-06T03:32:34.333Z,0.6
2019-03-06T03:33:32.120Z,0.6
2019-03-06T03:34:32.136Z,0.6
2019-03-06T03:35:32.118Z,0.7
2019-03-06T03:36:32.190Z,0.7
2019-03-06T03:37:32.189Z,0.8
2019-03-06T03:38:32.222Z,0.8
2019-03-06T03:39:32.268Z,0.9
2019-03-06T03:40:32.331Z,0.9
2019-03-06T03:41:32.371Z,0.8
2019-03-06T03:42:32.419Z,0.8
2019-03-06T03:43:32.438Z,0.8
2019-03-06T03:44:32.475Z,0.9
2019-03-06T03:45:32.535Z,0.9
2019-03-06T03:46:35.035Z,0.9
2019-03-06T03:47:32.602Z,1
2019-03-06T03:48:32.665Z,1
2019-03-06T03:49:34.946Z,1
2019-03-06T03:50:32.706Z,1
2019-03-06T03:51:32.765Z,1
2019-03-06T03:52:32.797Z,1
2019-03-06T03:53:32.833Z,0.9
2019-03-06T03:54:32.802Z,0.9
2019-03-06T03:55:32.859Z,0.9
2019-03-06T03:56:32.871Z,1
2019-03-06T03:57:32.900Z,1
2019-03-06T03:58:32.936Z,1
2019-03-06T03:59:32.990Z,0.9
2019-03-06T04:00:33.014Z,0.9
2019-03-06T04:01:33.087Z,0.9
2019-03-06T04:02:33.097Z,0.9
2019-03-06T04:03:33.101Z,1
2019-03-06T04:04:33.222Z,1
2019-03-06T04:05:33.204Z,0.9
2019-03-06T04:06:33.240Z,0.9
2019-03-06T04:07:33.245Z,0.9
2019-03-06T04:08:33.296Z,0.9
2019-03-06T04:09:33.326Z,0.9
2019-03-06T04:10:33.360Z,1
2019-03-06T04:11:33.388Z,1
2019-03-06T04:12:34.294Z,1
2019-03-06T04:13:33.445Z,1
2019-03-06T04:14:33.492Z,1
2019-03-06T04:15:33.483Z,1
2019-03-06T04:16:33.506Z,1
2019-03-06T04:17:33.573Z,0.9
2019-03-06T04:18:33.580Z,0.9
2019-03-06T04:19:33.606Z,0.9
2019-03-06T04:20:33.629Z,0.8
2019-03-06T04:21:33.676Z,0.9
2019-03-06T04:22:33.692Z,0.9
2019-03-06T04:23:36.241Z,0.9
2019-03-06T04:24:33.722Z,0.8
2019-03-06T04:25:33.766Z,0.8
2019-03-06T04:26:33.771Z,0.8
2019-03-06T04:27:33.814Z,0.8
2019-03-06T04:28:33.817Z,0.8
2019-03-06T04:29:33.834Z,0.8
2019-03-06T04:30:33.839Z,0.8
2019-03-06T04:31:34.893Z,0.8
2019-03-06T04:32:33.906Z,0.8
2019-03-06T04:33:33.906Z,0.7
2019-03-06T04:34:33.911Z,0.8
2019-03-06T04:35:34.971Z,0.7
2019-03-06T04:36:33.989Z,0.7
2019-03-06T04:37:33.961Z,0.8
2019-03-06T04:38:33.968Z,0.8
2019-03-06T04:39:34.024Z,0.8
2019-03-06T04:40:34.022Z,0.8
2019-03-06T04:41:34.040Z,0.8
2019-03-06T04:42:34.060Z,0.8
2019-03-06T04:43:34.062Z,0.8
2019-03-06T04:44:34.082Z,0.8
2019-03-06T04:45:34.096Z,0.8
2019-03-06T04:46:34.119Z,0.7
2019-03-06T04:47:34.113Z,0.7
2019-03-06T04:48:34.148Z,0.7
2019-03-06T04:49:34.114Z,0.7
2019-03-06T04:50:34.139Z,0.7
2019-03-06T04:51:34.155Z,0.7
2019-03-06T04:52:34.137Z,0.7
2019-03-06T04:53:34.147Z,0.7
2019-03-06T04:54:34.179Z,0.7
2019-03-06T04:55:34.180Z,0.8
2019-03-06T04:56:34.172Z,0.8
2019-03-06T04:57:34.194Z,0.7
2019-03-06T04:58:34.176Z,0.7
2019-03-06T04:59:34.190Z,0.7
2019-03-06T05:00:34.218Z,0.7
2019-03-06T05:01:36.693Z,0.6
2019-03-06T05:02:34.223Z,0.7
2019-03-06T05:03:34.232Z,0.6
2019-03-06T05:04:34.238Z,0.6
2019-03-06T05:05:34.217Z,0.7
2019-03-06T05:06:34.206Z,0.6
2019-03-06T05:07:34.243Z,0.6
2019-03-06T05:08:34.237Z,0.6
2019-03-06T05:09:34.256Z,0.6
2019-03-06T05:10:34.292Z,0.6
2019-03-06T05:11:34.300Z,0.6
2019-03-06T05:12:34.291Z,0.7
2019-03-06T05:13:34.309Z,0.6
2019-03-06T05:14:34.333Z,0.6
2019-03-06T05:15:34.343Z,0.5
2019-03-06T05:16:34.398Z,0.5
2019-03-06T05:17:34.375Z,0.5
2019-03-06T05:18:34.398Z,0.5
2019-03-06T05:19:34.384Z,0.5
2019-03-06T05:20:35.541Z,0.4
2019-03-06T05:21:34.410Z,0.4
2019-03-06T05:22:34.452Z,0.4
2019-03-06T05:23:34.458Z,0.3
2019-03-06T05:24:34.445Z,0.2
2019-03-06T05:25:36.026Z,0.3
2019-03-06T05:26:34.482Z,0.3
2019-03-06T05:27:34.474Z,0.2
2019-03-06T05:28:34.505Z,0.2
2019-03-06T05:29:34.496Z,0.2
2019-03-06T05:30:34.517Z,0.2
2019-03-06T05:31:34.528Z,0.3
2019-03-06T05:32:34.584Z,0.3
2019-03-06T05:33:34.536Z,0.4
2019-03-06T05:34:34.537Z,0.4
2019-03-06T05:35:34.556Z,0.2
2019-03-06T05:36:34.590Z,0.4
2019-03-06T05:37:34.592Z,0.4
2019-03-06T05:38:34.573Z,0.4
2019-03-06T05:39:34.594Z,0.4
2019-03-06T05:40:34.583Z,0.4
2019-03-06T05:41:34.611Z,0.3
2019-03-06T05:42:34.581Z,0.3
2019-03-06T05:43:34.638Z,0.3
2019-03-06T05:44:34.622Z,0.1
2019-03-06T05:45:34.638Z,0.2
2019-03-06T05:46:34.640Z,0.2
2019-03-06T05:47:34.629Z,0.1
2019-03-06T05:48:34.636Z,0.1
2019-03-06T05:49:34.643Z,0
2019-03-06T05:50:34.654Z,0.1
2019-03-06T05:51:34.663Z,0.1
2019-03-06T05:52:34.678Z,0.1
2019-03-06T05:53:34.724Z,0.1
2019-03-06T05:54:34.766Z,0.1
2019-03-06T05:55:34.730Z,0.1
2019-03-06T05:56:34.747Z,0
2019-03-06T05:57:34.864Z,0.1
2019-03-06T05:58:34.762Z,0.2
2019-03-06T05:59:34.784Z,0.2
2019-03-06T06:00:34.812Z,0.1
2019-03-06T06:01:37.400Z,0.1
2019-03-06T06:02:34.836Z,0.1
2019-03-06T06:03:34.816Z,0.1
2019-03-06T06:04:34.818Z,0.1
2019-03-06T06:05:34.896Z,0.2
2019-03-06T06:06:34.844Z,0.2
2019-03-06T06:07:34.871Z,0.2
2019-03-06T06:08:34.854Z,0.2
2019-03-06T06:09:34.873Z,0.1
2019-03-06T06:10:34.891Z,0.1
2019-03-06T06:11:34.885Z,0.1
2019-03-06T06:12:34.898Z,0.2
2019-03-06T06:13:35.020Z,0.2
2019-03-06T06:14:42.314Z,0.2
2019-03-06T06:15:34.917Z,0.2
2019-03-06T06:16:34.903Z,0.2
2019-03-06T06:17:34.938Z,0.3
2019-03-06T06:18:34.903Z,0.2
2019-03-06T06:19:34.949Z,0.3
2019-03-06T06:20:34.997Z,0.2
2019-03-06T06:21:34.988Z,0.2
2019-03-06T06:22:35.013Z,0.2
2019-03-06T06:23:35.037Z,0.2
2019-03-06T06:24:35.097Z,0.1
2019-03-06T06:25:35.134Z,0.2
2019-03-06T06:26:35.135Z,0.2
2019-03-06T06:27:35.140Z,0.2
2019-03-06T06:28:35.195Z,0.2
2019-03-06T06:29:35.227Z,0.3
2019-03-06T06:30:35.313Z,0.2
2019-03-06T06:31:35.302Z,0.2
2019-03-06T06:32:35.348Z,0.2
2019-03-06T06:33:35.401Z,0.2
2019-03-06T06:34:35.437Z,0.3
2019-03-06T06:35:35.434Z,0.3
2019-03-06T06:36:35.514Z,0.3
2019-03-06T06:37:35.499Z,0.4
2019-03-06T06:38:37.393Z,0.4
2019-03-06T06:39:35.584Z,0.4
2019-03-06T06:40:35.793Z,0.4
2019-03-06T06:41:35.651Z,0.4
2019-03-06T06:42:35.657Z,0.4
2019-03-06T06:43:35.694Z,0.3
2019-03-06T06:44:35.726Z,0.4
2019-03-06T06:45:35.711Z,0.4
2019-03-06T06:46:35.780Z,0.4
2019-03-06T06:47:35.801Z,0.4
2019-03-06T06:48:35.817Z,0.4
2019-03-06T06:49:35.846Z,0.4
2019-03-06T06:50:35.887Z,0.4
2019-03-06T06:51:35.934Z,0.4
2019-03-06T06:52:35.946Z,0.4
2019-03-06T06:53:36.109Z,0.5
2019-03-06T06:54:35.981Z,0.5
2019-03-06T06:55:36.055Z,0.5
2019-03-06T06:56:36.046Z,0.5
2019-03-06T06:57:36.068Z,0.5
2019-03-06T06:58:36.080Z,0.5
2019-03-06T06:59:36.077Z,0.5
2019-03-06T07:00:36.106Z,0.6
2019-03-06T07:01:36.133Z,0.5
2019-03-06T07:02:36.148Z,0.5
2019-03-06T07:03:36.171Z,0.6
2019-03-06T07:04:36.195Z,0.6
2019-03-06T07:05:36.210Z,0.7
2019-03-06T07:06:36.240Z,0.6
2019-03-06T07:07:36.269Z,0.6
2019-03-06T07:08:36.297Z,0.6
2019-03-06T07:09:36.297Z,0.4
2019-03-06T07:10:36.315Z,0.6
2019-03-06T07:11:36.345Z,0.5
2019-03-06T07:12:36.338Z,0.5
2019-03-06T07:13:36.368Z,0.6
2019-03-06T07:14:36.359Z,0.6
2019-03-06T07:15:36.373Z,0.7
2019-03-06T07:16:36.394Z,0.8
2019-03-06T07:17:36.394Z,0.9
2019-03-06T07:18:36.426Z,0.9
2019-03-06T07:19:36.472Z,0.8
2019-03-06T07:20:36.463Z,0.8
2019-03-06T07:21:36.475Z,0.9
2019-03-06T07:22:36.457Z,0.9
2019-03-06T07:23:36.492Z,0.9
2019-03-06T07:24:36.511Z,0.8
2019-03-06T07:25:36.493Z,0.5
2019-03-06T07:26:36.499Z,0.5
2019-03-06T07:27:36.520Z,0.7
2019-03-06T07:28:36.530Z,0.8
2019-03-06T07:29:36.518Z,0.8
2019-03-06T07:30:36.533Z,0.6
2019-03-06T07:31:36.526Z,0.6
2019-03-06T07:32:36.558Z,0.7
2019-03-06T07:33:36.544Z,0.8
2019-03-06T07:34:36.546Z,0.6
2019-03-06T07:35:37.622Z,0.7
2019-03-06T07:36:36.546Z,0.5
2019-03-06T07:37:36.581Z,0.6
2019-03-06T07:38:36.575Z,0.4
2019-03-06T07:39:36.554Z,0.6
2019-03-06T07:40:36.588Z,0.6
2019-03-06T07:41:36.573Z,0.7
2019-03-06T07:42:36.670Z,0.8
2019-03-06T07:43:36.652Z,0.6
2019-03-06T07:44:36.677Z,0.6
2019-03-06T07:45:36.737Z,0
2019-03-06T07:46:36.796Z,0.7
2019-03-06T07:47:39.010Z,0.8
2019-03-06T07:48:36.826Z,0.8
2019-03-06T07:49:44.613Z,0.7
2019-03-06T07:50:36.879Z,0.7
2019-03-06T07:51:36.939Z,0.8
2019-03-06T07:52:37.023Z,0.7
2019-03-06T07:53:37.054Z,0.7
2019-03-06T07:54:37.077Z,0.5
2019-03-06T07:55:37.094Z,0.2
2019-03-06T07:56:37.144Z,0.4
2019-03-06T07:57:37.164Z,0.5
2019-03-06T07:58:37.175Z,0.3
2019-03-06T07:59:37.232Z,0.3
2019-03-06T08:00:37.257Z,0.4
2019-03-06T08:01:37.293Z,0.5
2019-03-06T08:02:37.337Z,0.4
2019-03-06T08:03:37.373Z,0.6
2019-03-06T08:04:37.366Z,0.4
2019-03-06T08:05:37.424Z,0.6
2019-03-06T08:06:37.466Z,0.4
2019-03-06T08:07:37.477Z,0.4
2019-03-06T08:08:37.507Z,0.2
2019-03-06T08:09:37.518Z,0.2
2019-03-06T08:10:37.580Z,0.5
2019-03-06T08:11:37.616Z,0.5
2019-03-06T08:12:37.631Z,0.6
2019-03-06T08:13:37.698Z,0.7
2019-03-06T08:14:37.720Z,0.1
2019-03-06T08:15:37.757Z,0.4
2019-03-06T08:16:37.761Z,0.4
2019-03-06T08:17:37.744Z,0.3
2019-03-06T08:18:37.803Z,0.5
2019-03-06T08:19:37.808Z,0.4
2019-03-06T08:20:37.867Z,0.5
2019-03-06T08:21:37.865Z,0.7
2019-03-06T08:22:37.897Z,0.4
2019-03-06T08:23:37.908Z,0.6
2019-03-06T08:24:37.958Z,0.7
2019-03-06T08:25:37.984Z,0.4
2019-03-06T08:26:37.983Z,0
2019-03-06T08:27:38.023Z,0.2
2019-03-06T08:28:38.056Z,0.6
2019-03-06T08:29:38.079Z,0.6
2019-03-06T08:30:38.096Z,0.2
2019-03-06T08:31:38.099Z,0.6
2019-03-06T08:32:38.115Z,1.1
2019-03-06T08:33:38.130Z,1.4
2019-03-06T08:34:38.136Z,0.7
2019-03-06T08:35:38.144Z,1
2019-03-06T08:36:38.164Z,0.9
2019-03-06T08:37:38.185Z,0.9
2019-03-06T08:38:38.236Z,1.1
2019-03-06T08:39:38.241Z,0.7
2019-03-06T08:40:38.262Z,1
2019-03-06T08:41:38.280Z,1.6
2019-03-06T08:42:38.304Z,1.1
2019-03-06T08:43:38.327Z,1
2019-03-06T08:44:38.345Z,1.1
2019-03-06T08:45:38.473Z,0.9
2019-03-06T08:46:38.376Z,1
2019-03-06T08:47:38.406Z,1
2019-03-06T08:48:38.429Z,1
2019-03-06T08:49:38.398Z,1.2
2019-03-06T08:50:38.431Z,1.1
2019-03-06T08:51:38.429Z,1.1
2019-03-06T08:52:38.488Z,1.3
2019-03-06T08:53:38.488Z,1
2019-03-06T08:54:38.512Z,1
2019-03-06T08:55:38.527Z,0.9
2019-03-06T08:56:38.598Z,1.4
2019-03-06T08:57:38.559Z,1.5
2019-03-06T08:58:38.549Z,1.5
2019-03-06T08:59:38.568Z,1.6
2019-03-06T09:00:38.570Z,1.4
2019-03-06T09:01:38.605Z,1.4
2019-03-06T09:02:38.620Z,1.3
2019-03-06T09:03:38.595Z,1.3
2019-03-06T09:04:38.604Z,1.6
2019-03-06T09:05:38.662Z,1.4
2019-03-06T09:06:38.658Z,1
2019-03-06T09:07:38.669Z,1.2
2019-03-06T09:08:38.649Z,1.2
2019-03-06T09:09:38.649Z,1.3
2019-03-06T09:10:38.694Z,1.3
2019-03-06T09:11:39.484Z,1.4
2019-03-06T09:12:38.708Z,1.4
2019-03-06T09:13:38.706Z,1.5
2019-03-06T09:14:38.697Z,1.3
2019-03-06T09:15:38.704Z,1.3
2019-03-06T09:16:38.707Z,0.9
2019-03-06T09:17:38.689Z,1.1
2019-03-06T09:18:38.709Z,1.4
2019-03-06T09:19:38.698Z,1.2
2019-03-06T09:20:40.958Z,1
2019-03-06T09:21:38.724Z,1.3
2019-03-06T09:22:38.745Z,1.1
2019-03-06T09:23:38.726Z,1.5
2019-03-06T09:24:38.786Z,1.5
2019-03-06T09:25:38.783Z,1.5
2019-03-06T09:26:38.751Z,1.2
2019-03-06T09:27:38.772Z,1.1
2019-03-06T09:28:38.758Z,1.3
2019-03-06T09:29:38.769Z,1.4
2019-03-06T09:30:41.014Z,1.3
2019-03-06T09:31:38.821Z,1.1
2019-03-06T09:32:38.809Z,1.2
2019-03-06T09:33:38.823Z,0.9
2019-03-06T09:34:38.820Z,1.4
2019-03-06T09:35:38.879Z,1.6
2019-03-06T09:36:38.835Z,1.7
2019-03-06T09:37:38.850Z,1.6
2019-03-06T09:38:38.874Z,1.6
2019-03-06T09:39:38.850Z,1.8
2019-03-06T09:40:38.878Z,1.7
2019-03-06T09:41:38.902Z,1.2
2019-03-06T09:42:38.898Z,1.5
2019-03-06T09:43:38.919Z,1.4
2019-03-06T09:44:38.923Z,1.6
2019-03-06T09:45:38.920Z,1.5
2019-03-06T09:46:38.904Z,1.8
2019-03-06T09:47:38.926Z,1.8
2019-03-06T09:48:38.995Z,1.5
2019-03-06T09:49:41.158Z,1.3
2019-03-06T09:50:38.938Z,1.2
2019-03-06T09:51:38.937Z,1.2
2019-03-06T09:52:38.955Z,1.5
2019-03-06T09:53:40.011Z,1.7
2019-03-06T09:54:38.982Z,1.4
2019-03-06T09:55:38.978Z,1.4
2019-03-06T09:56:39.048Z,1.2
2019-03-06T09:57:38.987Z,1.3
2019-03-06T09:58:38.977Z,1.7
2019-03-06T09:59:38.985Z,1.5
2019-03-06T10:00:38.990Z,1.8
2019-03-06T10:01:39.025Z,1.8
2019-03-06T10:02:39.036Z,1.5
2019-03-06T10:03:39.072Z,1.4
2019-03-06T10:04:39.088Z,1.5
2019-03-06T10:05:39.090Z,1.3
2019-03-06T10:06:39.108Z,1.3
2019-03-06T10:07:39.142Z,1.8
2019-03-06T10:08:39.186Z,1.8
2019-03-06T10:09:39.169Z,1.9
2019-03-06T10:10:45.932Z,1.7
2019-03-06T10:11:39.186Z,1.8
2019-03-06T10:12:47.192Z,1.9
2019-03-06T10:13:42.005Z,1.9
2019-03-06T10:14:39.197Z,1.9
2019-03-06T10:15:39.225Z,1.9
2019-03-06T10:16:39.232Z,2
2019-03-06T10:17:39.351Z,1.9
2019-03-06T10:18:39.295Z,2
2019-03-06T10:19:39.292Z,1.7
2019-03-06T10:20:39.301Z,1.7
2019-03-06T10:21:39.314Z,1.7
2019-03-06T10:22:39.302Z,1.7
2019-03-06T10:23:39.302Z,1.8
2019-03-06T10:24:39.315Z,1.6
2019-03-06T10:25:39.335Z,1.9
2019-03-06T10:26:39.318Z,2
2019-03-06T10:27:39.314Z,2
2019-03-06T10:28:39.326Z,2
2019-03-06T10:29:39.344Z,2
2019-03-06T10:30:39.362Z,2
2019-03-06T10:31:39.351Z,1.9
2019-03-06T10:32:41.623Z,2.5
2019-03-06T10:33:39.340Z,2.1
2019-03-06T10:34:39.351Z,2
2019-03-06T10:35:39.345Z,1.8
2019-03-06T10:36:54.733Z,2
2019-03-06T10:37:39.417Z,2
2019-03-06T10:38:39.445Z,1.9
2019-03-06T10:39:39.498Z,2.1
2019-03-06T10:40:39.522Z,1.8
2019-03-06T10:41:39.584Z,1.9
2019-03-06T10:42:39.600Z,2
2019-03-06T10:43:39.623Z,1.9
2019-03-06T10:44:39.703Z,1.9
2019-03-06T10:45:41.705Z,1.9
2019-03-06T10:46:39.746Z,1.9
2019-03-06T10:47:39.759Z,1.6
2019-03-06T10:48:39.788Z,1.7
2019-03-06T10:49:39.775Z,1.8
2019-03-06T10:50:39.813Z,1.8
2019-03-06T10:51:39.908Z,1.8
2019-03-06T10:52:39.865Z,1.7
2019-03-06T10:53:41.335Z,1.7
2019-03-06T10:54:44.569Z,1.5
2019-03-06T10:55:40.008Z,1.5
2019-03-06T10:56:40.018Z,1.7
2019-03-06T10:57:40.056Z,2
2019-03-06T10:58:40.068Z,1.8
2019-03-06T10:59:40.132Z,1.5
2019-03-06T11:00:40.150Z,1.4
2019-03-06T11:01:40.154Z,1.5
2019-03-06T11:02:40.208Z,1.6
2019-03-06T11:03:41.213Z,1.7
2019-03-06T11:04:40.203Z,2
2019-03-06T11:05:40.264Z,1.6
2019-03-06T11:06:40.307Z,1.8
2019-03-06T11:07:40.315Z,1.9
2019-03-06T11:08:40.321Z,1.8
2019-03-06T11:09:40.334Z,1.6
2019-03-06T11:10:40.369Z,1.7
2019-03-06T11:11:40.380Z,1.5
2019-03-06T11:12:40.393Z,1.3
2019-03-06T11:13:40.451Z,1.4
2019-03-06T11:14:40.456Z,1.6
2019-03-06T11:15:40.464Z,1.3
2019-03-06T11:16:40.501Z,1.3
2019-03-06T11:17:40.533Z,1.3
2019-03-06T11:18:40.619Z,1.5
2019-03-06T11:19:40.604Z,1.7
2019-03-06T11:20:43.044Z,1.5
2019-03-06T11:21:40.551Z,1.5
2019-03-06T11:22:40.572Z,1.7
2019-03-06T11:23:40.599Z,1.8
2019-03-06T11:24:40.613Z,1.7
2019-03-06T11:25:40.626Z,1.7
2019-03-06T11:26:40.681Z,1.7
2019-03-06T11:27:40.649Z,1.4
2019-03-06T11:28:40.685Z,1.4
2019-03-06T11:29:40.724Z,1.3
2019-03-06T11:30:40.710Z,1.3
2019-03-06T11:31:40.754Z,1.4
2019-03-06T11:32:40.719Z,1.6
2019-03-06T11:33:40.745Z,1.5
2019-03-06T11:34:40.764Z,1.3
2019-03-06T11:35:40.811Z,1.4
2019-03-06T11:36:40.776Z,1.5
2019-03-06T11:37:40.795Z,1.7
2019-03-06T11:38:40.827Z,1.7
2019-03-06T11:39:40.832Z,1.6
2019-03-06T11:40:40.853Z,1.3
2019-03-06T11:41:40.814Z,1.4
2019-03-06T11:42:40.831Z,1.4
2019-03-06T11:43:40.830Z,1.6
2019-03-06T11:44:40.819Z,1.4
2019-03-06T11:45:40.867Z,1.6
2019-03-06T11:46:40.870Z,1.8
2019-03-06T11:47:43.246Z,1.4
2019-03-06T11:48:40.857Z,1.9
2019-03-06T11:49:40.882Z,1.8
2019-03-06T11:50:41.338Z,1.5
2019-03-06T11:51:40.982Z,1.9
2019-03-06T11:52:40.861Z,1.7
2019-03-06T11:53:40.911Z,1.7
2019-03-06T11:54:40.872Z,1.5
2019-03-06T11:55:40.889Z,1.8
2019-03-06T11:56:40.927Z,1.5
2019-03-06T11:57:40.881Z,1.6
2019-03-06T11:58:40.930Z,1.7
2019-03-06T11:59:40.945Z,1.5
2019-03-06T12:00:41.002Z,1.5
2019-03-06T12:01:47.810Z,1.6
2019-03-06T12:02:41.115Z,1.8
2019-03-06T12:03:41.145Z,2.1
2019-03-06T12:04:41.174Z,1.8
2019-03-06T12:05:41.285Z,1.8
2019-03-06T12:06:41.248Z,1.8
2019-03-06T12:07:41.269Z,1.8
2019-03-06T12:08:45.699Z,1.8
2019-03-06T12:09:41.346Z,1.9
2019-03-06T12:10:41.369Z,2
2019-03-06T12:11:41.397Z,2
2019-03-06T12:12:41.428Z,2
2019-03-06T12:13:42.034Z,1.8
2019-03-06T12:14:41.546Z,2
2019-03-06T12:15:41.677Z,1.9
2019-03-06T12:16:42.071Z,2
2019-03-06T12:17:41.639Z,1.9
2019-03-06T12:18:41.686Z,1.8
2019-03-06T12:19:41.730Z,2
2019-03-06T12:20:41.752Z,1.5
2019-03-06T12:21:41.800Z,1.7
2019-03-06T12:22:41.791Z,1.8
2019-03-06T12:23:41.861Z,1.8
2019-03-06T12:24:41.863Z,1.5
2019-03-06T12:25:41.908Z,1.4
2019-03-06T12:26:41.929Z,1.7
2019-03-06T12:27:41.963Z,1.4
2019-03-06T12:28:42.049Z,1.5
2019-03-06T12:29:42.100Z,1.7
2019-03-06T12:30:42.103Z,2.1
2019-03-06T12:31:42.100Z,2.1
2019-03-06T12:32:42.128Z,1.8
2019-03-06T12:33:42.172Z,1.7
2019-03-06T12:34:42.215Z,1.6
2019-03-06T12:35:42.237Z,1.7
2019-03-06T12:36:42.252Z,1.7
2019-03-06T12:37:46.825Z,1.4
2019-03-06T12:38:42.273Z,1.7
2019-03-06T12:39:42.299Z,1.8
2019-03-06T12:40:42.339Z,1.9
2019-03-06T12:41:44.394Z,1.6
2019-03-06T12:42:42.389Z,1.7
2019-03-06T12:43:44.540Z,2.1
2019-03-06T12:44:42.428Z,2.3
2019-03-06T12:45:42.414Z,1.8
2019-03-06T12:46:42.453Z,2
2019-03-06T12:47:42.469Z,2.1
2019-03-06T12:48:42.477Z,2.3
2019-03-06T12:49:42.518Z,2.2
2019-03-06T12:50:42.532Z,2.1
2019-03-06T12:51:42.563Z,1.8
2019-03-06T12:52:42.565Z,2.1
2019-03-06T12:53:42.608Z,2
2019-03-06T12:54:42.600Z,2
2019-03-06T12:55:42.634Z,2.2
2019-03-06T12:56:42.644Z,1.9
2019-03-06T12:57:42.669Z,2
2019-03-06T12:58:42.696Z,2
2019-03-06T12:59:42.722Z,1.7
2019-03-06T13:00:42.752Z,2
2019-03-06T13:01:42.778Z,1.8
2019-03-06T13:02:42.787Z,1.8
2019-03-06T13:03:42.785Z,1.8
2019-03-06T13:04:42.820Z,1.8
2019-03-06T13:05:42.840Z,2.1
2019-03-06T13:06:42.826Z,2.3
2019-03-06T13:07:42.888Z,2.4
2019-03-06T13:08:50.128Z,2.1
2019-03-06T13:09:42.866Z,1.9
2019-03-06T13:10:42.896Z,1.8
2019-03-06T13:11:42.910Z,1.7
2019-03-06T13:12:45.185Z,1.8
2019-03-06T13:13:42.957Z,2
2019-03-06T13:14:43.016Z,2.1
2019-03-06T13:15:43.968Z,2.2
2019-03-06T13:16:42.962Z,2.3
2019-03-06T13:17:42.994Z,2.1
2019-03-06T13:18:43.005Z,2
2019-03-06T13:19:43.018Z,1.6
2019-03-06T13:20:42.994Z,1.6
2019-03-06T13:21:43.006Z,2.2
2019-03-06T13:22:43.002Z,2.1
2019-03-06T13:23:43.009Z,2.2
2019-03-06T13:24:43.017Z,2.1
2019-03-06T13:25:43.034Z,2
2019-03-06T13:26:46.677Z,2.1
2019-03-06T13:27:43.041Z,2
2019-03-06T13:29:43.061Z,2.2
2019-03-06T13:30:43.050Z,2.2
2019-03-06T13:31:43.058Z,2.4
2019-03-06T13:32:44.099Z,2.3
2019-03-06T13:33:44.092Z,2.2
2019-03-06T13:34:50.270Z,2.2
2019-03-06T13:35:43.057Z,2.2
2019-03-06T13:36:43.081Z,1.8
2019-03-06T13:37:44.082Z,1.4
2019-03-06T13:38:43.112Z,1.7
2019-03-06T13:39:43.085Z,1.4
2019-03-06T13:40:43.089Z,1.7
2019-03-06T13:41:43.112Z,2
2019-03-06T13:42:43.118Z,1.9
2019-03-06T13:43:44.399Z,1.7
2019-03-06T13:44:43.304Z,1.5
2019-03-06T13:45:45.537Z,1.5
2019-03-06T13:46:43.115Z,1.3
2019-03-06T13:47:43.106Z,1.4
2019-03-06T13:48:43.174Z,1.3
2019-03-06T13:49:43.837Z,1.3
2019-03-06T13:50:43.128Z,1.7
2019-03-06T13:51:43.170Z,1.5
2019-03-06T13:52:43.170Z,1.6